Airfield :
LOGIN :

Register | Disclaimer

   EN    FR    IT 

 










Legend :    VFR   Marginal VFR   IFR   Intensive IFR   Very Intensive IFR
Visi :
Ceiling :
>= 8 km
>= 3000ft
5 to 8 km
1000 to 3000 ft
1500m to 5 km
500 to 1000 ft
800 to 1500m
200 to 500 ft
< 800m
< 200 ft
Symbols :   Thunderstorms  Fog  Heavy snow  Heavy precipitations  Wind > 20 kt
SIGMETs :     Misc.  Thunderstorms  Icing  Turbulence  Mountain Waves  Volcanic Ashes






- Airport Elevation : 121 ft
- IATA code : HUY


EGNJ - Humberside

CURRENT METAR :
  • 192050Z AUTO 13006KT 9999 NCD 21/17 Q1012

EXPIRED METARs :
  • 192020Z AUTO 13006KT 9999 NCD 22/17 Q1012
  • 191950Z AUTO 14007KT 8000 -RA NCD 23/18 Q1012
  • 191920Z AUTO 13008KT 9999 NCD 24/18 Q1012
  • 191850Z 13008KT 9999 SCT040 25/19 Q1012
  • 191820Z 13009KT 9999 SCT040 26/19 Q1012
  • 191750Z 18004KT 9999 SCT040 28/18 Q1012
  • 191720Z 18008KT 9999 SCT040 28/16 Q1013
  • 191650Z 17009KT 9999 SCT040 29/16 Q1013
  • 191620Z 17010KT 9999 SCT038 29/16 Q1013
  • 191550Z 18011KT 150V220 9999 SCT038 29/16 Q1013

TAF TAF EGNJ
Valid from the 19 at 21:00 until the 20 at 06:00 UTC


192000Z 1921/2006 15007KT 9999 FEW045
PROB30
TEMPO 1921/2002 8000 -RA
ATIS : +44 1652 682 020



MET'MAP, your aeronautical weather chart ! - Copyright ORBIFLY December 2007 - Disclaimer

ORBIFLY MET'MAP TEAM :

Programming & Development : Alexandra Zaïnal
Original concept : Baudouin d'Aumeries
Technical & hardware support : Manuel Goepfert
Assistance : Marc-Olivier Méhu




SOURCES & CREDITS :

   NOAA